Weather observations for the past three days for
Easton Airport
| Date | Time (edt) | Wind (kph) | Vis. (km) | Weather | Sky Cond. | Temperature (ºC) | Relative Humidity | Wind Chill (°C) | Heat Index (°C) | Pressure | Precipitation (cm) | ||||||
|---|---|---|---|---|---|---|---|---|---|---|---|---|---|---|---|---|---|
| Air | Dwpt | 6 hour | altimeter (cm) | sea level (mb) | 1 hr | 3 hr | 6 hr | ||||||||||
| Max. | Min. | ||||||||||||||||
| 06 | 23:55 | SW 6 | 16.09 | Overcast | BKN031 OVC055 | 18.6 | 16.8 | 89% | 75.69 | 0.0 | |||||||
| 06 | 23:35 | SW 6 | 16.09 | Mostly Cloudy | BKN033 BKN050 | 18.3 | 16.8 | 91% | 75.69 | 0.0 | |||||||
| 06 | 23:15 | S 6 | 16.09 | Overcast | OVC032 | 18.3 | 16.7 | 90% | 75.67 | 0.0 | |||||||
| 06 | 22:55 | S 7 | 16.09 | Overcast | OVC030 | 18.5 | 16.7 | 89% | 75.67 | 0.0 | |||||||
| 06 | 22:35 | S 7 | 16.09 | Overcast | OVC030 | 18 | 16.8 | 93% | 75.69 | 0.0 | |||||||
| 06 | 21:45 | Calm | 16.09 | Partly Cloudy | SCT080 | 17 | 16 | 94% | 75.72 | 0.0 | |||||||
| 06 | 20:45 | Calm | 16.09 | A Few Clouds | FEW095 | 19 | 16 | 83% | 75.72 | 0.0 | |||||||
| 06 | 19:45 | SW 7 | 16.09 | A Few Clouds | FEW110 | 20 | 16 | 78% | 75.67 | 0.0 | |||||||
| 06 | 18:45 | SW 13 | 16.09 | Fair | CLR | 20 | 16 | 78% | 75.67 | 0.0 | |||||||
| 06 | 17:45 | SW 20 G 35 | 16.09 | Fair | CLR | 21 | 16 | 73% | 75.67 | 0.0 | |||||||
| 06 | 16:45 | SW 24 G 39 | 16.09 | A Few Clouds | FEW200 | 21 | 16 | 73% | 75.64 | 0.0 | |||||||
| 06 | 15:45 | SW 33 G 44 | 16.09 | Partly Cloudy and Breezy | SCT095 | 20 | 15 | 73% | 75.67 | 0.0 | |||||||
| 06 | 14:45 | SW 37 G 44 | 16.09 | A Few Clouds and Breezy | FEW090 | 20 | 15 | 73% | 75.67 | 0.0 | |||||||
| 06 | 13:45 | SW 28 G 37 | 16.09 | A Few Clouds | FEW070 | 20 | 16 | 78% | 75.74 | 0.0 | |||||||
| 06 | 12:50 | S 33 G 50 | 16.09 | Mostly Cloudy and Breezy | FEW024 SCT055 BKN070 | 19 | 16 | 83% | 75.74 | 0.0 | |||||||
| 06 | 11:45 | S 19 | 8.05 | Light Rain | BKN043 BKN050 OVC075 | 18 | 15 | 83% | 75.82 | 0.0 | |||||||
| 06 | 10:50 | S 22 | 12.87 | Light Rain | SCT070 BKN085 | 19 | 15 | 78% | 75.84 | 0.0 | |||||||
| 06 | 09:45 | S 30 | 16.09 | Fair | CLR | 20 | 12 | 60% | 75.84 | 0.0 | |||||||
| 06 | 08:45 | S 28 G 43 | 16.09 | A Few Clouds | FEW120 | 20 | 12 | 60% | 75.84 | 0.0 | |||||||
| 06 | 07:45 | S 33 G 41 | 16.09 | Partly Cloudy and Breezy | SCT200 | 19 | 12 | 64% | 75.87 | 0.0 | |||||||
| 06 | 06:45 | S 30 G 43 | 16.09 | Fair | CLR | 18 | 12 | 68% | 75.84 | 0.0 | |||||||
| 06 | 05:56 | S 24 | 16.09 | Partly Cloudy | SCT110 | 18 | 13 | 73% | 75.84 | 0.0 | |||||||
| 06 | 05:55 | S 24 | 16.09 | Partly Cloudy | SCT110 | 17.8 | 12.7 | 72% | 75.84 | 0.0 | |||||||
| 06 | 05:35 | S 24 | 16.09 | Fair | CLR | 17.9 | 12.7 | 72% | 75.84 | 0.0 | |||||||
| 06 | 05:15 | S 26 G 41 | 16.09 | Fair | CLR | 17.9 | 12.8 | 72% | 75.82 | 0.0 | |||||||
| 06 | 04:35 | S 22 | 16.09 | Fair | CLR | 18.2 | 13 | 72% | 75.82 | 0.0 | |||||||
| 06 | 04:15 | S 22 G 39 | 16.09 | Fair | CLR | 18.3 | 13.1 | 72% | 75.84 | 0.0 | |||||||
| 06 | 03:55 | S 28 G 41 | 16.09 | Fair | CLR | 18.6 | 13.1 | 71% | 75.84 | 0.0 | |||||||
| 06 | 03:35 | S 26 G 41 | 16.09 | Fair | CLR | 18.7 | 13.3 | 71% | 75.84 | 0.0 | |||||||
| 06 | 03:15 | S 28 G 44 | 16.09 | Fair | CLR | 18.9 | 13.3 | 70% | 75.84 | 0.0 | |||||||
| 06 | 02:55 | S 28 G 39 | 16.09 | Fair | CLR | 19 | 13.5 | 71% | 75.84 | 0.0 | |||||||
| 06 | 02:35 | S 30 | 16.09 | Fair | CLR | 19.4 | 13.5 | 69% | 75.84 | 0.0 | |||||||
| 06 | 02:15 | S 31 G 41 | 16.09 | Fair | CLR | 19.7 | 13.6 | 68% | 75.87 | 0.0 | |||||||
| 06 | 01:55 | S 33 | 16.09 | Fair and Breezy | CLR | 20 | 13.7 | 22.8 | 19.9 | 67% | 75.87 | 0.0 | |||||
| 06 | 01:35 | S 30 G 39 | 16.09 | Fair | CLR | 20 | 13.7 | 67% | 75.87 | 0.0 | |||||||
| 06 | 01:15 | S 26 | 16.09 | Fair | CLR | 20.2 | 13.8 | 67% | 75.9 | 0.0 | |||||||
| 06 | 00:55 | S 24 | 16.09 | A Few Clouds | FEW220 | 20.6 | 13.7 | 65% | 75.9 | 0.0 | |||||||
| 06 | 00:35 | S 31 G 43 | 16.09 | Fair | CLR | 20.6 | 13.7 | 65% | 75.9 | 0.0 | |||||||
| 06 | 00:15 | S 26 G 37 | 16.09 | Fair | CLR | 20.7 | 13.8 | 65% | 75.9 | 0.0 | |||||||
| 05 | 23:55 | S 24 | 16.09 | Fair | CLR | 20.3 | 14 | 67% | 75.9 | 0.0 | |||||||
| 05 | 23:35 | S 22 | 16.09 | Fair | CLR | 20.3 | 14 | 67% | 75.9 | 0.0 | |||||||
| 05 | 23:15 | S 20 G 37 | 16.09 | Fair | CLR | 20.4 | 14 | 67% | 75.9 | 0.0 | |||||||
| 05 | 22:55 | S 20 | 16.09 | Partly Cloudy | SCT240 | 20.2 | 13.6 | 66% | 75.9 | 0.0 | |||||||
| 05 | 22:35 | S 17 | 16.09 | A Few Clouds | FEW240 | 20.4 | 13.4 | 64% | 75.9 | 0.0 | |||||||
| 05 | 22:15 | S 22 | 16.09 | Fair | CLR | 20.7 | 13 | 62% | 75.9 | 0.0 | |||||||
| 05 | 21:45 | S 24 | 16.09 | Fair | CLR | 21 | 12 | 57% | 75.9 | 0.0 | |||||||
| 05 | 20:45 | S 22 | 16.09 | Fair | CLR | 21 | 12 | 57% | 75.82 | 0.0 | |||||||
| 05 | 19:45 | S 22 | 16.09 | Fair | CLR | 23 | 12 | 50% | 75.79 | 0.0 | |||||||
| 05 | 18:45 | S 24 | 16.09 | Fair | CLR | 25 | 11 | 42% | 26 | 75.79 | 0.0 | ||||||
| 05 | 17:45 | S 33 G 43 | 16.09 | Fair and Breezy | CLR | 27 | 10 | 34% | 27 | 75.77 | 0.0 | ||||||
| 05 | 16:45 | S 33 G 52 | 16.09 | Fair and Breezy | CLR | 28 | 10 | 32% | 27 | 75.77 | 0.0 | ||||||
| 05 | 15:45 | S 33 G 44 | 16.09 | Fair and Breezy | CLR | 28 | 11 | 35% | 27 | 75.82 | 0.0 | ||||||
| 05 | 14:50 | S 28 G 43 | 16.09 | Fair | CLR | 28 | 10 | 32% | 27 | 75.87 | 0.0 | ||||||
| 05 | 13:45 | S 33 G 39 | 16.09 | Fair and Breezy | CLR | 28 | 9 | 30% | 27 | 75.9 | 0.0 | ||||||
| 05 | 12:55 | SW 20 | 16.09 | Fair | CLR | 26 | 10 | 37% | 26 | 75.95 | 0.0 | ||||||
| 05 | 11:45 | SW 20 | 16.09 | Fair | CLR | 25 | 11 | 42% | 26 | 76 | 0.0 | ||||||
| 05 | 10:45 | S 24 | 14.48 | Fair | CLR | 23 | 10 | 44% | 76 | 0.0 | |||||||
| 05 | 09:45 | SW 20 G 31 | 16.09 | Fair | CLR | 21 | 10 | 50% | 76 | 0.0 | |||||||
| 05 | 08:45 | SW 24 G 33 | 16.09 | Fair | CLR | 20 | 10 | 53% | 76 | 0.0 | |||||||
| 05 | 07:45 | SW 20 | 16.09 | A Few Clouds | FEW110 | 19 | 10 | 56% | 75.97 | 0.0 | |||||||
| 05 | 06:45 | SW 20 | 16.09 | Fair | CLR | 18 | 10 | 60% | 75.92 | 0.0 | |||||||
| 05 | 05:55 | S 17 | 16.09 | Fair | CLR | 16 | 10 | 68% | 75.92 | 0.0 | |||||||
| 05 | 05:35 | S 19 | 16.09 | Fair | CLR | 16.5 | 9.8 | 65% | 75.9 | 0.0 | |||||||
| 05 | 05:15 | S 17 | 16.09 | Fair | CLR | 16.7 | 9.7 | 64% | 75.92 | 0.0 | |||||||
| 05 | 04:55 | S 20 | 16.09 | Fair | CLR | 17.2 | 9.6 | 61% | 75.9 | 0.0 | |||||||
| 05 | 04:35 | S 19 | 16.09 | Fair | CLR | 17.2 | 9.8 | 62% | 75.9 | 0.0 | |||||||
| 05 | 04:15 | S 20 | 16.09 | Fair | CLR | 17.4 | 9.9 | 62% | 75.9 | 0.0 | |||||||
| 05 | 03:55 | SW 19 G 30 | 16.09 | Fair | CLR | 17.7 | 10.1 | 61% | 75.9 | 0.0 | |||||||
| 05 | 03:35 | SW 17 | 16.09 | Fair | CLR | 17.5 | 10.1 | 62% | 75.9 | 0.0 | |||||||
| 05 | 03:15 | SW 17 | 16.09 | Fair | CLR | 17.4 | 10.1 | 62% | 75.9 | 0.0 | |||||||
| 05 | 02:55 | SW 22 | 16.09 | Fair | CLR | 17.5 | 10.1 | 62% | 75.9 | 0.0 | |||||||
| 05 | 02:35 | S 19 | 16.09 | Fair | CLR | 17.4 | 10.2 | 63% | 75.9 | 0.0 | |||||||
| 05 | 02:15 | S 20 | 16.09 | Fair | CLR | 17.5 | 10.6 | 64% | 75.87 | 0.0 | |||||||
| 05 | 01:55 | S 19 | 16.09 | Fair | CLR | 17.7 | 11.1 | 20.6 | 16.6 | 65% | 75.9 | 0.0 | |||||
| 05 | 01:35 | S 19 | 16.09 | Fair | CLR | 17.7 | 11.5 | 67% | 75.9 | 0.0 | |||||||
| 05 | 01:15 | S 19 | 16.09 | A Few Clouds | FEW110 | 17.5 | 11.6 | 69% | 75.9 | 0.0 | |||||||
| 05 | 00:55 | S 17 | 16.09 | A Few Clouds | FEW110 | 17.2 | 11.7 | 70% | 75.9 | 0.0 | |||||||
| 05 | 00:35 | S 19 | 16.09 | Fair | CLR | 16.9 | 11.9 | 73% | 75.9 | 0.0 | |||||||
| 05 | 00:15 | S 17 | 16.09 | A Few Clouds | FEW140 | 17.2 | 11.2 | 68% | 75.87 | 0.0 | |||||||
| 04 | 23:55 | S 11 | 16.09 | A Few Clouds | FEW130 | 16.7 | 11.1 | 70% | 75.87 | 0.0 | |||||||
| 04 | 23:35 | S 17 | 16.09 | Fair | CLR | 16.9 | 11.3 | 70% | 75.87 | 0.0 | |||||||
| 04 | 23:15 | S 15 | 16.09 | Fair | CLR | 16.9 | 11.3 | 70% | 75.87 | 0.0 | |||||||
| 04 | 22:55 | S 15 | 16.09 | Fair | CLR | 17.2 | 11.1 | 68% | 75.87 | 0.0 | |||||||
| 04 | 22:35 | S 15 | 16.09 | Fair | CLR | 17.4 | 10.8 | 65% | 75.87 | 0.0 | |||||||
| 04 | 22:15 | S 15 | 16.09 | Fair | CLR | 17.7 | 10.6 | 63% | 75.87 | 0.0 | |||||||
| 04 | 21:45 | S 19 | 16.09 | Fair | CLR | 18 | 10 | 60% | 75.87 | 0.0 | |||||||
| 04 | 20:45 | S 17 | 16.09 | Fair | CLR | 19 | 7 | 46% | 75.84 | 0.0 | |||||||
| 04 | 19:45 | S 22 G 33 | 16.09 | Fair | CLR | 21 | 6 | 38% | 75.82 | 0.0 | |||||||
| 04 | 18:50 | S 22 | 16.09 | Fair | CLR | 23 | 5 | 31% | 75.82 | 0.0 | |||||||
| 04 | 17:45 | S 26 | 16.09 | Fair | CLR | 23 | 6 | 33% | 75.82 | 0.0 | |||||||
| 04 | 16:45 | S 26 | 16.09 | Fair | CLR | 25 | 4 | 26% | 25 | 75.82 | 0.0 | ||||||
| 04 | 15:45 | SW 20 G 31 | 16.09 | Fair | CLR | 24 | 3 | 25% | 25 | 75.9 | 0.0 | ||||||
| 04 | 14:45 | SW 20 | 16.09 | Fair | CLR | 23 | 2 | 25% | 75.95 | 0.0 | |||||||
| 04 | 13:45 | SW 24 | 16.09 | Fair | CLR | 22 | 1 | 25% | 76 | 0.0 | |||||||
| 04 | 12:45 | S 17 | 16.09 | Fair | CLR | 21 | 2 | 29% | 76.05 | 0.0 | |||||||
| 04 | 11:45 | W 13 | 16.09 | Fair | CLR | 20 | 4 | 35% | 76.1 | 0.0 | |||||||
| 04 | 10:45 | S 15 | 16.09 | Fair | CLR | 18 | 5 | 43% | 76.12 | 0.0 | |||||||
| 04 | 09:45 | SW 20 G 30 | 16.09 | Fair | CLR | 17 | 4 | 42% | 76.12 | 0.0 | |||||||
| 04 | 08:45 | SW 26 | 16.09 | Partly Cloudy | SCT100 | 16 | 4 | 45% | 76.17 | 0.0 | |||||||
| 04 | 07:45 | S 11 | 16.09 | A Few Clouds | FEW100 | 14 | 6 | 59% | 76.2 | 0.0 | |||||||
| 04 | 06:45 | S 7 | 16.09 | Mostly Cloudy | BKN110 | 12 | 7 | 72% | 76.23 | 0.0 | |||||||
| 04 | 05:55 | S 11 | 14.48 | Mostly Cloudy | BKN110 | 12.4 | 7 | 70% | 76.2 | 0.0 | |||||||
| 04 | 05:50 | S 9 | 16.09 | Overcast | OVC110 | 12 | 6 | 67% | 76.2 | 0.0 | |||||||
| 04 | 05:35 | S 11 | 16.09 | Overcast | OVC110 | 12.4 | 7.1 | 70% | 76.2 | 0.0 | |||||||
| 04 | 05:15 | S 13 | 16.09 | Overcast | OVC120 | 12.3 | 7.3 | 72% | 76.2 | 0.0 | |||||||
| 04 | 04:55 | S 13 | 16.09 | Overcast | OVC120 | 12.3 | 7.6 | 73% | 76.2 | 0.0 | |||||||
| 04 | 04:35 | S 13 | 16.09 | Mostly Cloudy | BKN120 | 12.1 | 7.8 | 75% | 76.2 | 0.0 | |||||||
| 04 | 04:15 | S 13 | 16.09 | Mostly Cloudy | BKN120 | 12 | 7.8 | 76% | 76.2 | 0.0 | |||||||
| 04 | 03:55 | S 13 | 16.09 | Partly Cloudy | SCT130 | 11.8 | 7.2 | 74% | 76.23 | 0.0 | |||||||
| 04 | 03:35 | S 15 | 16.09 | Fair | CLR | 11.6 | 6.6 | 72% | 76.23 | 0.0 | |||||||
| 04 | 03:15 | S 13 | 16.09 | Fair | CLR | 11.5 | 5.9 | 69% | 76.23 | 0.0 | |||||||
| 04 | 02:55 | S 15 | 16.09 | Partly Cloudy | SCT130 | 11.8 | 5.9 | 67% | 76.23 | 0.0 | |||||||
| 04 | 02:35 | S 13 | 16.09 | Mostly Cloudy | BKN130 | 11.4 | 6 | 70% | 76.23 | 0.0 | |||||||
| 04 | 02:15 | S 11 | 16.09 | A Few Clouds | FEW150 | 9.9 | 5.4 | 74% | 9 | 76.25 | 0.0 | ||||||
| 04 | 01:55 | S 9 | 16.09 | Partly Cloudy | SCT170 | 9.6 | 4.5 | 14 | 8.6 | 71% | 9 | 76.23 | 0.0 | ||||
| 04 | 01:35 | S 9 | 16.09 | Mostly Cloudy | BKN170 | 8.9 | 4.1 | 72% | 8 | 76.23 | 0.0 | ||||||
| 04 | 01:15 | S 11 | 16.09 | Mostly Cloudy | BKN180 | 9.4 | 3.5 | 67% | 8 | 76.23 | 0.0 | ||||||
| 04 | 00:55 | S 6 | 16.09 | Fair | CLR | 9.2 | 2.4 | 63% | 76.23 | 0.0 | |||||||
| 04 | 00:35 | S 6 | 16.09 | Fair | CLR | 9.2 | 2.1 | 61% | 76.23 | 0.0 | |||||||
| Date | Time (edt) | Wind (kph) | Vis. (km) | Weather | Sky Cond. | Air | Dwpt | Max. | Min. | Relative Humidity | Wind Chill (°C) | Heat Index (°C) | altimeter (cm) | sea level (mb) | 1 hr | 3 hr | 6 hr |
| 6 hour | |||||||||||||||||
| Temperature (ºC) | Pressure | Precipitation (cm) | |||||||||||||||